createdAt,value
2023-05-14T00:01:16.733Z,58.62
2023-05-14T00:06:19.699Z,55.66
2023-05-14T00:11:22.503Z,60.23
2023-05-14T00:16:25.533Z,66.62
2023-05-14T00:21:28.422Z,56.06
2023-05-14T00:26:31.396Z,56.80
2023-05-14T00:31:34.175Z,60.87
2023-05-14T00:36:37.043Z,67.23
2023-05-14T00:41:40.049Z,56.24
2023-05-14T00:46:43.896Z,58.07
2023-05-14T00:51:47.220Z,62.28
2023-05-14T00:56:51.113Z,66.61
2023-05-14T01:01:54.521Z,55.73
2023-05-14T01:07:21.063Z,57.10
2023-05-14T01:12:53.388Z,62.56
2023-05-14T01:18:01.985Z,65.95
2023-05-14T01:23:05.020Z,54.52
2023-05-14T01:28:19.434Z,58.49
2023-05-14T01:33:25.023Z,60.67
2023-05-14T01:38:31.852Z,69.07
2023-05-14T01:43:36.008Z,57.05
2023-05-14T01:48:38.983Z,55.83
2023-05-14T01:53:41.834Z,60.08
2023-05-14T01:58:44.817Z,66.98
2023-05-14T02:03:47.664Z,56.97
2023-05-14T02:08:51.000Z,56.22
2023-05-14T02:13:53.880Z,59.80
2023-05-14T02:18:56.790Z,64.20
2023-05-14T02:23:59.694Z,66.34
2023-05-14T02:29:02.518Z,55.22
2023-05-14T02:34:06.863Z,58.68
2023-05-14T02:39:09.671Z,65.00
2023-05-14T02:44:12.491Z,62.42
2023-05-14T02:49:15.271Z,54.27
2023-05-14T02:54:18.075Z,57.64
2023-05-14T02:59:20.854Z,61.55
2023-05-14T03:04:24.273Z,68.87
2023-05-14T03:09:27.101Z,56.73
2023-05-14T03:14:29.903Z,56.20
2023-05-14T03:19:32.724Z,60.43
2023-05-14T03:24:35.648Z,67.99
2023-05-14T03:29:38.514Z,56.25
2023-05-14T03:34:41.672Z,56.14
2023-05-14T03:39:44.491Z,59.28
2023-05-14T03:44:47.322Z,58.32
2023-05-14T03:49:50.201Z,68.64
2023-05-14T03:54:53.142Z,65.61
2023-05-14T03:59:55.931Z,57.51
2023-05-14T04:04:58.799Z,54.65
2023-05-14T04:10:04.539Z,55.94
2023-05-14T04:15:08.833Z,58.87
2023-05-14T04:20:11.804Z,71.35
2023-05-14T04:25:14.619Z,62.76
2023-05-14T04:30:17.755Z,55.08
2023-05-14T04:35:23.443Z,58.04
2023-05-14T04:40:28.018Z,59.74
2023-05-14T04:45:34.292Z,67.71
2023-05-14T04:50:37.353Z,57.21
2023-05-14T04:55:40.164Z,55.51
2023-05-14T05:00:43.092Z,57.24
2023-05-14T05:05:45.892Z,59.45
2023-05-14T05:10:48.813Z,59.64
2023-05-14T05:15:51.669Z,68.03
2023-05-14T05:20:54.563Z,56.42
2023-05-14T05:25:57.380Z,55.08
2023-05-14T05:31:00.288Z,57.50
2023-05-14T05:36:03.287Z,57.86
2023-05-14T05:41:06.569Z,58.73
2023-05-14T05:46:09.471Z,59.56
2023-05-14T05:51:12.296Z,59.97
2023-05-14T05:56:15.147Z,59.30
2023-05-14T06:01:17.945Z,60.36
2023-05-14T06:06:21.893Z,61.12
2023-05-14T06:11:25.460Z,63.51
2023-05-14T06:16:28.362Z,50.27
2023-05-14T06:21:31.088Z,50.96
2023-05-14T06:26:33.898Z,51.28
2023-05-14T06:31:36.650Z,53.58
2023-05-14T06:36:39.577Z,51.30
2023-05-14T06:41:42.384Z,52.24
2023-05-14T06:46:45.146Z,52.93
2023-05-14T06:51:47.991Z,51.40
2023-05-14T06:56:50.832Z,51.52
2023-05-14T07:01:53.750Z,52.00
2023-05-14T07:06:56.667Z,52.58
2023-05-14T07:11:59.482Z,51.71
2023-05-14T07:17:02.412Z,51.49
2023-05-14T07:22:05.607Z,49.94
2023-05-14T07:27:09.149Z,46.50
2023-05-14T07:32:14.722Z,47.26
2023-05-14T07:37:19.040Z,46.01
2023-05-14T07:42:34.479Z,43.01
2023-05-14T07:47:40.721Z,45.07
2023-05-14T07:52:43.782Z,43.20
2023-05-14T07:57:46.605Z,41.25
2023-05-14T08:02:50.487Z,40.22
2023-05-14T08:07:53.484Z,40.48
2023-05-14T08:12:56.387Z,39.44
2023-05-14T08:18:03.653Z,39.38
2023-05-14T08:23:07.598Z,38.94
2023-05-14T08:28:10.424Z,38.02
2023-05-14T08:33:13.469Z,37.04
2023-05-14T08:38:16.357Z,37.48
2023-05-14T08:43:22.904Z,36.61
2023-05-14T08:48:29.394Z,36.86
2023-05-14T08:53:32.295Z,35.38
2023-05-14T08:58:35.103Z,35.70
2023-05-14T09:03:38.836Z,34.15
2023-05-14T09:08:41.965Z,32.81
2023-05-14T09:13:44.776Z,32.69
2023-05-14T09:18:48.172Z,32.90
2023-05-14T09:23:55.465Z,32.91
2023-05-14T09:29:02.782Z,32.08
2023-05-14T09:34:05.955Z,32.57
2023-05-14T09:39:08.842Z,31.11
2023-05-14T09:44:11.708Z,31.23
2023-05-14T09:49:15.116Z,30.81
2023-05-14T09:54:17.992Z,29.60
2023-05-14T09:59:20.830Z,29.04
2023-05-14T10:04:24.483Z,29.03
2023-05-14T10:09:29.836Z,29.67
2023-05-14T10:14:38.820Z,29.14
2023-05-14T10:19:42.002Z,29.41
2023-05-14T10:24:46.234Z,29.68
2023-05-14T10:29:56.371Z,29.46
2023-05-14T10:35:01.832Z,28.28
2023-05-14T10:40:06.835Z,27.31
2023-05-14T10:45:12.821Z,27.57
2023-05-14T10:50:16.249Z,27.75
2023-05-14T10:55:19.119Z,26.45
2023-05-14T11:00:26.194Z,26.61
2023-05-14T11:05:29.360Z,26.21
2023-05-14T11:10:32.581Z,26.81
2023-05-14T11:15:36.235Z,26.48
2023-05-14T11:20:39.177Z,26.41
2023-05-14T11:25:43.008Z,25.92
2023-05-14T11:30:46.525Z,25.65
2023-05-14T11:35:49.490Z,26.01
2023-05-14T11:40:56.828Z,26.27
2023-05-14T11:45:59.773Z,25.62
2023-05-14T11:51:02.663Z,25.98
2023-05-14T11:56:07.603Z,26.73
2023-05-14T12:01:13.792Z,27.55
2023-05-14T12:06:16.593Z,27.73
2023-05-14T12:11:21.378Z,27.31
2023-05-14T12:16:24.244Z,27.35
2023-05-14T12:21:28.014Z,26.35
2023-05-14T12:26:34.264Z,26.79
2023-05-14T12:31:37.088Z,26.35
2023-05-14T12:36:39.945Z,25.67
2023-05-14T12:41:42.732Z,26.47
2023-05-14T12:46:46.196Z,26.92
2023-05-14T12:51:51.175Z,27.43
2023-05-14T12:56:55.663Z,27.44
2023-05-14T13:01:58.498Z,28.13
2023-05-14T13:07:01.332Z,27.68
2023-05-14T13:12:04.675Z,27.78
2023-05-14T13:17:08.277Z,26.35
2023-05-14T13:22:11.211Z,26.62
2023-05-14T13:27:14.025Z,26.39
2023-05-14T13:32:16.883Z,25.92
2023-05-14T13:37:20.077Z,24.99
2023-05-14T13:42:23.758Z,24.78
2023-05-14T13:47:27.029Z,25.09
2023-05-14T13:52:29.891Z,25.43
2023-05-14T13:57:32.723Z,25.16
2023-05-14T14:02:35.605Z,25.19
2023-05-14T14:07:40.676Z,25.17
2023-05-14T14:12:43.486Z,25.21
2023-05-14T14:17:46.377Z,25.06
2023-05-14T14:22:49.357Z,23.46
2023-05-14T14:27:52.281Z,24.07
2023-05-14T14:32:55.337Z,22.47
2023-05-14T14:37:58.290Z,21.59
2023-05-14T14:43:02.244Z,21.33
2023-05-14T14:48:38.009Z,21.80
2023-05-14T14:53:40.913Z,22.39
2023-05-14T14:58:43.824Z,22.79
2023-05-14T15:03:48.411Z,22.43
2023-05-14T15:08:51.283Z,22.50
2023-05-14T15:13:54.068Z,22.49
2023-05-14T15:18:56.922Z,21.08
2023-05-14T15:23:59.908Z,20.42
2023-05-14T15:29:04.764Z,20.02
2023-05-14T15:34:07.691Z,19.97
2023-05-14T15:39:10.509Z,20.48
2023-05-14T15:44:13.297Z,20.59
2023-05-14T15:49:16.122Z,21.18
2023-05-14T15:54:18.966Z,21.70
2023-05-14T15:59:21.883Z,21.33
2023-05-14T16:04:25.294Z,20.63
2023-05-14T16:09:28.118Z,19.46
2023-05-14T16:14:31.099Z,18.77
2023-05-14T16:19:33.929Z,18.15
2023-05-14T16:24:36.776Z,17.86
2023-05-14T16:29:39.595Z,17.10
2023-05-14T16:34:47.542Z,17.11
2023-05-14T16:39:50.500Z,17.76
2023-05-14T16:44:53.387Z,17.87
2023-05-14T16:49:57.656Z,17.47
2023-05-14T16:55:00.589Z,17.33
2023-05-14T17:00:06.304Z,17.94
2023-05-14T17:05:09.483Z,17.91
2023-05-14T17:10:12.418Z,18.35
2023-05-14T17:15:15.246Z,18.74
2023-05-14T17:20:18.070Z,19.01
2023-05-14T17:25:24.038Z,18.73
2023-05-14T17:30:27.200Z,18.37
2023-05-14T17:35:30.095Z,18.57
2023-05-14T17:40:33.648Z,19.23
2023-05-14T17:45:46.284Z,20.18
2023-05-14T17:50:56.497Z,20.97
2023-05-14T17:55:59.707Z,22.27
2023-05-14T18:01:02.664Z,23.15
2023-05-14T18:06:05.846Z,24.15
2023-05-14T18:11:08.913Z,25.26
2023-05-14T18:16:11.742Z,26.08
2023-05-14T18:21:14.642Z,26.80
2023-05-14T18:26:17.872Z,27.82
2023-05-14T18:31:20.835Z,29.29
2023-05-14T18:36:23.792Z,30.18
2023-05-14T18:41:26.685Z,28.89
2023-05-14T18:46:29.702Z,32.43
2023-05-14T18:51:32.732Z,32.64
2023-05-14T18:56:37.575Z,33.25
2023-05-14T19:01:40.540Z,34.88
2023-05-14T19:06:43.924Z,35.97
2023-05-14T19:11:47.692Z,36.01
2023-05-14T19:16:50.868Z,37.63
2023-05-14T19:21:53.731Z,37.16
2023-05-14T19:26:56.421Z,37.94
2023-05-14T19:31:59.590Z,38.30
2023-05-14T19:37:03.050Z,39.95
2023-05-14T19:42:06.331Z,41.11
2023-05-14T19:47:09.388Z,42.39
2023-05-14T19:52:12.289Z,42.65
2023-05-14T19:57:15.076Z,44.44
2023-05-14T20:02:18.642Z,43.93
2023-05-14T20:07:21.678Z,44.95
2023-05-14T20:12:24.516Z,45.99
2023-05-14T20:17:27.428Z,46.97
2023-05-14T20:22:30.426Z,48.39
2023-05-14T20:27:33.208Z,47.13
2023-05-14T20:32:36.083Z,45.49
2023-05-14T20:37:39.221Z,45.79
2023-05-14T20:42:41.916Z,46.98
2023-05-14T20:47:44.974Z,41.84
2023-05-14T20:52:47.749Z,44.44
2023-05-14T20:57:50.670Z,41.70
2023-05-14T21:02:54.027Z,46.62
2023-05-14T21:07:56.914Z,48.61
2023-05-14T21:12:59.770Z,47.38
2023-05-14T21:18:03.161Z,44.24
2023-05-14T21:23:06.092Z,47.99
2023-05-14T21:28:09.155Z,46.89
2023-05-14T21:33:12.007Z,46.60
2023-05-14T21:38:15.361Z,46.65
2023-05-14T21:43:18.305Z,48.54
2023-05-14T21:48:21.838Z,50.37
2023-05-14T21:53:24.742Z,50.38
2023-05-14T21:58:27.732Z,49.46
2023-05-14T22:03:30.605Z,49.86
2023-05-14T22:08:33.462Z,50.76
2023-05-14T22:13:40.893Z,51.70
2023-05-14T22:18:44.257Z,49.90
2023-05-14T22:23:48.010Z,52.17
2023-05-14T22:28:50.872Z,51.92
2023-05-14T22:33:53.799Z,53.97
2023-05-14T22:38:56.599Z,53.67
2023-05-14T22:43:59.405Z,53.54
2023-05-14T22:49:02.321Z,52.24
2023-05-14T22:54:05.200Z,54.52
2023-05-14T22:59:08.067Z,55.51
2023-05-14T23:04:11.192Z,55.70
2023-05-14T23:09:13.919Z,54.93
2023-05-14T23:14:18.050Z,54.16
2023-05-14T23:19:21.987Z,54.76
2023-05-14T23:24:26.237Z,56.81
2023-05-14T23:29:29.072Z,55.21
2023-05-14T23:34:31.892Z,56.68
2023-05-14T23:39:34.725Z,58.61
2023-05-14T23:44:37.568Z,59.42
2023-05-14T23:49:41.011Z,70.80
2023-05-14T23:54:43.804Z,62.27
2023-05-14T23:59:46.894Z,53.05
